createdAt,value
2023-05-09T00:04:31.724Z,2.20
2023-05-09T00:05:28.675Z,2.20
2023-05-09T00:06:28.537Z,2.40
2023-05-09T00:07:29.070Z,2.10
2023-05-09T00:08:28.473Z,2.30
2023-05-09T00:09:28.078Z,2.30
2023-05-09T00:12:10.905Z,2.30
2023-05-09T00:13:12.704Z,2.30
2023-05-09T00:16:31.675Z,2.50
2023-05-09T00:26:07.295Z,2.50
2023-05-09T00:27:18.024Z,2.50
2023-05-09T00:30:25.809Z,2.60
2023-05-09T00:32:41.073Z,2.20
2023-05-09T00:33:52.634Z,2.20
2023-05-09T00:46:32.860Z,2.70
2023-05-09T00:53:09.066Z,2.50
2023-05-09T00:54:28.698Z,2.70
2023-05-09T00:55:08.358Z,2.70
2023-05-09T00:56:09.033Z,2.70
2023-05-09T00:57:08.360Z,2.40
2023-05-09T01:13:19.736Z,2.60
2023-05-09T01:15:56.364Z,2.70
2023-05-09T01:21:40.984Z,3.20
2023-05-09T01:30:41.080Z,3.10
2023-05-09T01:33:53.313Z,3.00
2023-05-09T01:38:04.089Z,3.20
2023-05-09T01:54:16.602Z,3.00
2023-05-09T01:57:18.967Z,3.50
2023-05-09T01:59:22.912Z,2.70
2023-05-09T02:00:23.579Z,2.90
2023-05-09T02:01:40.185Z,3.70
2023-05-09T02:02:35.769Z,3.30
2023-05-09T02:04:56.101Z,3.70
2023-05-09T02:18:48.830Z,3.70
2023-05-09T02:19:54.151Z,3.50
2023-05-09T02:22:13.798Z,2.90
2023-05-09T02:23:13.151Z,3.20
2023-05-09T02:24:13.705Z,3.40
2023-05-09T02:25:13.562Z,3.70
2023-05-09T02:27:55.616Z,3.60
2023-05-09T02:29:06.690Z,3.70
2023-05-09T02:31:27.675Z,2.80
2023-05-09T02:32:27.717Z,3.40
2023-05-09T02:33:28.210Z,3.40
2023-05-09T02:34:27.389Z,3.80
2023-05-09T02:35:27.309Z,3.00
2023-05-09T02:36:27.342Z,4.00
2023-05-09T02:39:13.095Z,3.60
2023-05-09T02:44:46.113Z,3.70
2023-05-09T02:59:53.950Z,3.90
2023-05-09T03:21:15.210Z,3.70
2023-05-09T03:22:14.120Z,3.70
2023-05-09T03:25:39.457Z,3.90
2023-05-09T03:26:52.532Z,3.70
2023-05-09T03:27:38.412Z,3.80
2023-05-09T03:33:32.652Z,4.10
2023-05-09T03:34:31.135Z,4.10
2023-05-09T03:53:43.712Z,4.30
2023-05-09T03:54:39.741Z,4.30
2023-05-09T04:05:19.607Z,4.20
2023-05-09T04:12:06.231Z,4.40
2023-05-09T04:13:04.894Z,4.30
2023-05-09T04:15:39.534Z,4.70
2023-05-09T04:16:38.700Z,4.60
2023-05-09T04:17:38.761Z,4.60
2023-05-09T04:18:38.568Z,4.40
2023-05-09T04:19:38.615Z,4.60
2023-05-09T04:39:42.292Z,4.70
2023-05-09T04:41:01.390Z,4.60
2023-05-09T04:41:42.038Z,4.40
2023-05-09T04:44:08.979Z,4.20
2023-05-09T04:49:24.947Z,4.50
2023-05-09T04:50:24.512Z,4.40
2023-05-09T04:51:25.293Z,4.60
2023-05-09T04:52:24.095Z,4.20
2023-05-09T04:53:24.231Z,4.60
2023-05-09T04:54:24.235Z,4.40
2023-05-09T04:55:24.007Z,4.20
2023-05-09T04:56:24.046Z,4.50
2023-05-09T04:57:24.192Z,4.20
2023-05-09T04:58:23.973Z,4.50
2023-05-09T04:59:23.930Z,4.40
2023-05-09T05:00:24.191Z,4.30
2023-05-09T05:01:25.488Z,4.80
2023-05-09T05:02:23.922Z,4.80
2023-05-09T05:03:23.857Z,4.80
2023-05-09T05:04:23.882Z,4.80
2023-05-09T05:05:36.979Z,4.90
2023-05-09T05:29:42.119Z,4.60
2023-05-09T05:30:42.214Z,4.80
2023-05-09T05:31:42.066Z,4.60
2023-05-09T05:32:42.127Z,4.40
2023-05-09T05:33:42.074Z,4.40
2023-05-09T05:34:42.123Z,4.30
2023-05-09T05:35:41.986Z,4.50
2023-05-09T05:36:42.917Z,4.30
2023-05-09T05:37:41.972Z,4.60
2023-05-09T05:38:41.940Z,4.40
2023-05-09T05:39:42.130Z,4.90
2023-05-09T05:40:41.928Z,4.40
2023-05-09T05:41:42.037Z,4.80
2023-05-09T05:42:42.607Z,4.40
2023-05-09T05:43:41.934Z,3.90
2023-05-09T05:44:41.927Z,4.10
2023-05-09T05:45:41.871Z,4.40
2023-05-09T05:46:41.777Z,4.10
2023-05-09T05:47:41.809Z,3.90
2023-05-09T05:48:41.856Z,4.30
2023-05-09T05:49:41.874Z,3.80
2023-05-09T05:50:41.751Z,4.00
2023-05-09T05:51:41.733Z,4.10
2023-05-09T05:52:41.853Z,4.80
2023-05-09T05:53:42.043Z,4.70
2023-05-09T05:54:41.826Z,4.40
2023-05-09T05:55:43.376Z,4.20
2023-05-09T05:56:41.835Z,3.90
2023-05-09T05:57:41.802Z,3.70
2023-05-09T05:58:42.187Z,3.80
2023-05-09T05:59:42.599Z,4.30
2023-05-09T06:00:41.926Z,4.40
2023-05-09T06:01:41.622Z,3.90
2023-05-09T06:02:41.670Z,4.40
2023-05-09T06:03:41.854Z,4.10
2023-05-09T06:04:42.364Z,4.10
2023-05-09T06:05:43.690Z,4.40
2023-05-09T06:06:44.365Z,4.80
2023-05-09T06:07:43.873Z,4.40
2023-05-09T06:08:41.518Z,4.10
2023-05-09T06:09:41.619Z,4.30
2023-05-09T06:10:41.762Z,4.20
2023-05-09T06:11:41.501Z,4.00
2023-05-09T06:12:42.458Z,4.30
2023-05-09T06:13:41.454Z,4.40
2023-05-09T06:14:41.516Z,3.90
2023-05-09T06:15:41.737Z,4.40
2023-05-09T06:16:42.464Z,4.50
2023-05-09T06:17:42.400Z,4.70
2023-05-09T06:18:41.346Z,4.00
2023-05-09T06:19:42.121Z,4.30
2023-05-09T06:20:41.464Z,3.80
2023-05-09T06:21:41.753Z,4.50
2023-05-09T06:22:41.930Z,4.30
2023-05-09T06:23:56.941Z,4.00
2023-05-09T06:24:42.527Z,4.00
2023-05-09T06:25:41.251Z,3.90
2023-05-09T06:26:41.497Z,3.90
2023-05-09T06:27:41.649Z,4.30
2023-05-09T06:28:41.304Z,4.50
2023-05-09T06:29:41.525Z,3.80
2023-05-09T06:30:41.215Z,4.20
2023-05-09T06:31:41.169Z,4.00
2023-05-09T06:32:41.220Z,4.30
2023-05-09T06:33:41.469Z,4.10
2023-05-09T06:34:41.108Z,4.00
2023-05-09T06:35:41.228Z,4.50
2023-05-09T06:36:41.102Z,4.60
2023-05-09T06:37:41.229Z,4.00
2023-05-09T06:38:41.276Z,3.90
2023-05-09T06:39:41.201Z,4.40
2023-05-09T06:40:41.150Z,4.10
2023-05-09T06:41:41.308Z,4.20
2023-05-09T06:42:41.096Z,3.90
2023-05-09T06:43:41.252Z,4.40
2023-05-09T06:44:41.092Z,4.30
2023-05-09T06:45:40.945Z,4.20
2023-05-09T06:46:41.203Z,4.40
2023-05-09T06:47:40.992Z,4.30
2023-05-09T06:48:41.178Z,4.60
2023-05-09T06:49:40.963Z,4.40
2023-05-09T06:50:41.109Z,4.40
2023-05-09T06:51:40.934Z,4.10
2023-05-09T06:52:40.864Z,3.90
2023-05-09T06:53:40.812Z,4.00
2023-05-09T06:54:40.786Z,4.10
2023-05-09T06:55:40.832Z,4.20
2023-05-09T06:56:40.877Z,3.90
2023-05-09T06:57:40.784Z,4.00
2023-05-09T06:58:40.775Z,3.90
2023-05-09T06:59:40.788Z,4.20
2023-05-09T07:00:40.743Z,4.40
2023-05-09T07:01:40.830Z,4.20
2023-05-09T07:02:40.929Z,4.20
2023-05-09T07:03:40.688Z,4.20
2023-05-09T07:04:40.675Z,4.30
2023-05-09T07:05:40.706Z,4.30
2023-05-09T07:06:40.745Z,4.50
2023-05-09T07:07:40.671Z,4.70
2023-05-09T07:08:40.586Z,4.30
2023-05-09T07:09:40.940Z,4.20
2023-05-09T07:10:40.655Z,4.20
2023-05-09T07:11:40.616Z,4.20
2023-05-09T07:12:40.607Z,3.80
2023-05-09T07:13:40.542Z,4.60
2023-05-09T07:14:40.510Z,4.40
2023-05-09T07:15:42.483Z,4.10
2023-05-09T07:16:40.643Z,4.00
2023-05-09T07:17:40.461Z,4.50
2023-05-09T07:18:40.497Z,4.00
2023-05-09T07:19:40.493Z,4.10
2023-05-09T07:20:40.514Z,3.90
2023-05-09T07:21:40.583Z,4.20
2023-05-09T07:22:40.509Z,4.40
2023-05-09T07:23:40.500Z,3.80
2023-05-09T07:24:40.519Z,4.20
2023-05-09T07:25:40.380Z,3.90
2023-05-09T07:26:40.650Z,4.00
2023-05-09T07:27:40.358Z,3.80
2023-05-09T07:28:40.374Z,3.90
2023-05-09T07:29:40.396Z,4.00
2023-05-09T07:30:40.415Z,3.90
2023-05-09T07:31:40.293Z,4.10
2023-05-09T07:32:40.270Z,4.10
2023-05-09T07:33:40.387Z,3.90
2023-05-09T07:34:40.234Z,3.60
2023-05-09T07:35:40.197Z,4.10
2023-05-09T07:36:40.422Z,4.00
2023-05-09T07:37:40.257Z,3.90
2023-05-09T07:38:40.197Z,4.10
2023-05-09T07:39:40.163Z,3.70
2023-05-09T07:40:40.275Z,4.00
2023-05-09T07:41:40.122Z,4.00
2023-05-09T07:42:40.123Z,4.00
2023-05-09T07:43:40.225Z,4.10
2023-05-09T07:44:40.100Z,3.80
2023-05-09T07:45:40.189Z,3.70
2023-05-09T07:46:40.042Z,3.70
2023-05-09T07:47:40.087Z,3.20
2023-05-09T07:48:40.134Z,3.70
2023-05-09T07:49:40.098Z,3.80
2023-05-09T07:50:40.044Z,4.00
2023-05-09T07:51:40.087Z,3.70
2023-05-09T07:52:40.006Z,3.40
2023-05-09T07:53:40.054Z,3.70
2023-05-09T07:54:40.023Z,3.70
2023-05-09T07:55:39.990Z,3.70
2023-05-09T07:56:39.971Z,3.70
2023-05-09T07:57:40.191Z,3.50
2023-05-09T07:58:39.988Z,3.90
2023-05-09T07:59:39.932Z,3.40
2023-05-09T08:00:39.871Z,3.40
2023-05-09T08:01:39.903Z,3.60
2023-05-09T08:02:39.957Z,3.70
2023-05-09T08:03:39.995Z,4.00
2023-05-09T08:04:39.837Z,4.00
2023-05-09T08:05:39.788Z,3.50
2023-05-09T08:06:39.777Z,3.20
2023-05-09T08:07:39.816Z,3.60
2023-05-09T08:08:39.811Z,3.30
2023-05-09T08:09:39.854Z,3.90
2023-05-09T08:10:39.930Z,4.00
2023-05-09T08:11:39.750Z,3.80
2023-05-09T08:12:39.923Z,3.50
2023-05-09T08:13:39.748Z,3.70
2023-05-09T08:14:39.808Z,3.50
2023-05-09T08:15:39.738Z,3.40
2023-05-09T08:16:39.755Z,3.50
2023-05-09T08:17:39.777Z,3.40
2023-05-09T08:18:39.662Z,4.00
2023-05-09T08:19:39.759Z,3.40
2023-05-09T08:20:39.631Z,3.60
2023-05-09T08:21:39.654Z,3.30
2023-05-09T08:22:39.561Z,3.40
2023-05-09T08:23:39.627Z,3.60
2023-05-09T08:24:39.600Z,3.60
2023-05-09T08:25:39.605Z,3.60
2023-05-09T08:26:39.542Z,3.40
2023-05-09T08:27:39.534Z,3.50
2023-05-09T08:28:39.558Z,3.60
2023-05-09T08:29:39.542Z,3.50
2023-05-09T08:30:39.473Z,3.40
2023-05-09T08:31:39.561Z,3.40
2023-05-09T08:32:39.474Z,3.20
2023-05-09T08:33:41.819Z,3.60
2023-05-09T08:34:39.544Z,3.30
2023-05-09T08:35:39.509Z,3.10
2023-05-09T08:36:39.414Z,3.20
2023-05-09T08:37:39.613Z,3.90
2023-05-09T08:38:39.424Z,3.60
2023-05-09T08:39:39.337Z,3.30
2023-05-09T08:40:39.353Z,3.50
2023-05-09T08:41:39.308Z,3.20
2023-05-09T08:42:39.299Z,3.30
2023-05-09T08:43:39.320Z,3.50
2023-05-09T08:44:39.308Z,3.30
2023-05-09T08:45:39.241Z,3.20
2023-05-09T08:46:39.333Z,3.50
2023-05-09T08:47:39.387Z,3.30
2023-05-09T08:48:39.302Z,3.40
2023-05-09T08:49:40.038Z,3.20
2023-05-09T08:50:39.331Z,3.30
2023-05-09T08:51:39.162Z,3.20
2023-05-09T08:52:39.276Z,3.50
2023-05-09T08:53:39.215Z,3.10
2023-05-09T08:54:39.138Z,3.30
2023-05-09T08:55:39.108Z,3.60
2023-05-09T08:56:39.149Z,3.40
2023-05-09T08:57:39.086Z,3.20
2023-05-09T08:58:39.098Z,3.00
2023-05-09T08:59:39.110Z,3.10
2023-05-09T09:00:39.087Z,3.10
2023-05-09T09:01:39.090Z,3.10
2023-05-09T09:02:39.142Z,3.20
2023-05-09T09:03:39.085Z,3.50
2023-05-09T09:04:39.117Z,3.00
2023-05-09T09:05:42.191Z,3.00
2023-05-09T09:06:39.072Z,3.10
2023-05-09T09:07:38.936Z,3.10
2023-05-09T09:08:39.743Z,3.10
2023-05-09T09:09:39.083Z,3.40
2023-05-09T09:10:39.879Z,3.10
2023-05-09T09:11:39.178Z,3.10
2023-05-09T09:12:39.138Z,2.80
2023-05-09T09:13:39.055Z,2.80
2023-05-09T09:14:38.848Z,2.50
2023-05-09T09:15:38.906Z,2.80
2023-05-09T09:16:38.884Z,3.10
2023-05-09T09:17:39.673Z,3.50
2023-05-09T09:18:40.130Z,3.20
2023-05-09T09:19:38.759Z,3.00
2023-05-09T09:20:38.828Z,3.00
2023-05-09T09:21:40.459Z,2.70
2023-05-09T09:22:39.728Z,3.00
2023-05-09T09:23:38.729Z,2.80
2023-05-09T09:24:38.702Z,3.30
2023-05-09T09:25:38.749Z,3.10
2023-05-09T09:26:38.831Z,3.20
2023-05-09T09:27:38.733Z,3.40
2023-05-09T09:28:38.954Z,2.90
2023-05-09T09:29:38.731Z,2.50
2023-05-09T09:30:38.626Z,3.20
2023-05-09T09:31:38.813Z,2.60
2023-05-09T09:32:38.747Z,2.60
2023-05-09T09:33:38.791Z,3.00
2023-05-09T09:34:38.619Z,2.60
2023-05-09T09:35:38.583Z,2.70
2023-05-09T09:36:39.316Z,2.70
2023-05-09T09:37:39.279Z,2.90
2023-05-09T09:38:38.851Z,2.70
2023-05-09T09:39:38.768Z,2.80
2023-05-09T09:40:38.717Z,2.60
2023-05-09T09:41:38.496Z,2.50
2023-05-09T09:42:38.461Z,2.80
2023-05-09T09:43:38.576Z,3.00
2023-05-09T09:44:38.437Z,2.90
2023-05-09T09:45:38.427Z,2.90
2023-05-09T09:46:38.506Z,3.00
2023-05-09T09:47:38.617Z,2.80
2023-05-09T09:48:38.598Z,3.20
2023-05-09T09:49:38.902Z,2.80
2023-05-09T09:50:39.159Z,2.80
2023-05-09T09:51:38.373Z,2.50
2023-05-09T09:52:38.351Z,2.70
2023-05-09T09:53:38.435Z,2.60
2023-05-09T09:54:38.451Z,2.50
2023-05-09T09:55:38.577Z,2.60
2023-05-09T09:56:38.364Z,2.80
2023-05-09T09:57:38.421Z,3.00
2023-05-09T09:58:38.442Z,2.80
2023-05-09T09:59:38.378Z,2.40
2023-05-09T10:00:38.421Z,2.10
2023-05-09T10:01:38.260Z,2.80
2023-05-09T10:02:38.447Z,2.70
2023-05-09T10:03:38.339Z,2.30
2023-05-09T10:04:38.210Z,2.60
2023-05-09T10:05:38.168Z,2.60
2023-05-09T10:06:38.200Z,2.60
2023-05-09T10:07:38.142Z,2.70
2023-05-09T10:08:38.096Z,2.90
2023-05-09T10:09:38.188Z,2.50
2023-05-09T10:10:38.135Z,2.60
2023-05-09T10:11:38.222Z,2.50
2023-05-09T10:12:38.167Z,2.30
2023-05-09T10:13:38.086Z,2.40
2023-05-09T10:14:38.159Z,2.80
2023-05-09T10:15:49.433Z,2.70
2023-05-09T10:16:43.928Z,2.50
2023-05-09T10:17:39.150Z,2.40
2023-05-09T10:18:38.105Z,2.80
2023-05-09T10:19:37.970Z,2.70
2023-05-09T10:20:37.966Z,2.50
2023-05-09T10:21:38.121Z,2.90
2023-05-09T10:22:37.931Z,2.50
2023-05-09T10:23:37.961Z,2.30
2023-05-09T10:24:38.048Z,2.40
2023-05-09T10:25:37.885Z,2.80
2023-05-09T10:26:38.031Z,2.70
2023-05-09T10:27:37.930Z,2.60
2023-05-09T10:28:38.125Z,2.60
2023-05-09T10:29:37.874Z,2.60
2023-05-09T10:30:38.025Z,2.80
2023-05-09T10:31:37.849Z,2.60
2023-05-09T10:32:38.038Z,2.80
2023-05-09T10:33:37.787Z,2.80
2023-05-09T10:34:37.846Z,2.70
2023-05-09T10:35:37.891Z,2.90
2023-05-09T10:36:37.771Z,2.80
2023-05-09T10:37:37.746Z,2.40
2023-05-09T10:38:37.716Z,2.80
2023-05-09T10:39:37.720Z,2.60
2023-05-09T10:40:37.694Z,6.90
2023-05-09T10:41:37.762Z,4.10
2023-05-09T10:42:37.798Z,2.60
2023-05-09T10:43:37.668Z,2.60
2023-05-09T10:44:37.665Z,2.90
2023-05-09T10:45:37.620Z,2.40
2023-05-09T10:46:37.734Z,2.80
2023-05-09T10:47:37.686Z,2.70
2023-05-09T10:48:37.578Z,3.10
2023-05-09T10:49:37.652Z,2.90
2023-05-09T10:50:37.554Z,3.00
2023-05-09T10:51:37.608Z,3.00
2023-05-09T10:52:37.579Z,3.30
2023-05-09T10:53:37.521Z,3.30
2023-05-09T10:54:37.579Z,3.00
2023-05-09T10:55:37.502Z,3.10
2023-05-09T10:56:37.485Z,2.50
2023-05-09T10:57:37.486Z,3.20
2023-05-09T10:58:37.527Z,2.70
2023-05-09T10:59:37.672Z,2.60
2023-05-09T11:00:37.421Z,2.70
2023-05-09T11:01:37.850Z,2.60
2023-05-09T11:02:37.467Z,3.00
2023-05-09T11:03:37.512Z,2.70
2023-05-09T11:04:37.438Z,2.50
2023-05-09T11:05:37.401Z,2.20
2023-05-09T11:06:37.353Z,2.40
2023-05-09T11:07:37.385Z,2.90
2023-05-09T11:08:37.332Z,2.50
2023-05-09T11:09:37.415Z,2.50
2023-05-09T11:10:37.331Z,2.90
2023-05-09T11:11:37.387Z,2.60
2023-05-09T11:12:37.319Z,2.50
2023-05-09T11:13:37.343Z,2.60
2023-05-09T11:14:37.264Z,2.60
2023-05-09T11:15:37.287Z,2.40
2023-05-09T11:16:37.249Z,2.50
2023-05-09T11:17:37.297Z,2.80
2023-05-09T11:18:37.215Z,2.60
2023-05-09T11:19:37.208Z,2.60
2023-05-09T11:20:37.265Z,2.60
2023-05-09T11:21:37.224Z,2.70
2023-05-09T11:22:37.185Z,2.40
2023-05-09T11:23:37.165Z,2.20
2023-05-09T11:24:37.115Z,2.40
2023-05-09T11:25:37.217Z,2.40
2023-05-09T11:26:37.201Z,2.60
2023-05-09T11:27:37.121Z,2.50
2023-05-09T11:28:37.072Z,2.70
2023-05-09T11:29:37.061Z,2.70
2023-05-09T11:30:37.075Z,2.90
2023-05-09T11:31:37.153Z,2.70
2023-05-09T11:32:37.132Z,2.20
2023-05-09T11:33:37.010Z,2.80
2023-05-09T11:34:36.993Z,2.20
2023-05-09T11:35:37.898Z,2.40
2023-05-09T11:36:38.028Z,2.70
2023-05-09T11:37:36.960Z,2.50
2023-05-09T11:38:36.949Z,3.40
2023-05-09T11:39:36.903Z,2.70
2023-05-09T11:40:36.937Z,2.60
2023-05-09T11:41:36.919Z,2.30
2023-05-09T11:42:36.942Z,2.60
2023-05-09T11:43:36.860Z,3.00
2023-05-09T11:44:36.857Z,3.30
2023-05-09T11:45:36.907Z,3.50
2023-05-09T11:46:36.823Z,3.40
2023-05-09T11:47:36.858Z,2.70
2023-05-09T11:48:36.855Z,2.90
2023-05-09T11:49:36.856Z,2.80
2023-05-09T11:50:36.803Z,3.60
2023-05-09T11:51:36.814Z,3.40
2023-05-09T11:52:36.815Z,3.30
2023-05-09T11:53:36.793Z,3.60
2023-05-09T11:54:36.819Z,3.40
2023-05-09T11:55:36.720Z,3.40
2023-05-09T11:56:36.768Z,5.40
2023-05-09T11:57:36.672Z,11.70
2023-05-09T11:58:36.775Z,8.80
2023-05-09T11:59:36.684Z,8.60
2023-05-09T12:00:36.723Z,8.90
2023-05-09T12:01:36.624Z,6.80
2023-05-09T12:02:36.758Z,4.40
2023-05-09T12:03:36.796Z,3.40
2023-05-09T12:04:36.721Z,3.40
2023-05-09T12:05:36.652Z,2.70
2023-05-09T12:06:36.632Z,2.50
2023-05-09T12:07:36.558Z,2.70
2023-05-09T12:08:36.654Z,2.30
2023-05-09T12:09:36.552Z,2.30
2023-05-09T12:10:36.538Z,2.60
2023-05-09T12:11:36.543Z,2.70
2023-05-09T12:12:36.630Z,2.40
2023-05-09T12:13:36.525Z,2.50
2023-05-09T12:14:36.489Z,2.60
2023-05-09T12:15:36.455Z,2.80
2023-05-09T12:16:36.471Z,2.60
2023-05-09T12:17:36.483Z,2.50
2023-05-09T12:18:36.453Z,2.90
2023-05-09T12:19:36.455Z,2.60
2023-05-09T12:20:36.436Z,2.40
2023-05-09T12:21:36.466Z,2.50
2023-05-09T12:22:36.509Z,2.70
2023-05-09T12:23:36.329Z,2.30
2023-05-09T12:24:36.373Z,2.20
2023-05-09T12:25:36.379Z,2.80
2023-05-09T12:26:36.491Z,2.90
2023-05-09T12:27:36.441Z,3.00
2023-05-09T12:28:36.559Z,2.80
2023-05-09T12:29:36.445Z,2.30
2023-05-09T12:30:36.590Z,2.50
2023-05-09T12:31:36.278Z,2.70
2023-05-09T12:32:36.275Z,2.50
2023-05-09T12:33:36.272Z,3.00
2023-05-09T12:34:36.204Z,3.20
2023-05-09T12:35:36.193Z,3.60
2023-05-09T12:36:36.505Z,3.20
2023-05-09T12:37:36.205Z,3.20
2023-05-09T12:38:36.191Z,4.80
2023-05-09T12:39:36.211Z,3.20
2023-05-09T12:40:37.464Z,2.90
2023-05-09T12:41:43.865Z,2.60
2023-05-09T12:42:37.133Z,2.90
2023-05-09T12:43:37.031Z,3.20
2023-05-09T12:44:36.265Z,2.70
2023-05-09T12:45:37.096Z,2.90
2023-05-09T12:46:37.671Z,2.60
2023-05-09T12:47:36.222Z,3.00
2023-05-09T12:48:37.036Z,3.20
2023-05-09T12:49:36.924Z,2.60
2023-05-09T12:50:36.911Z,2.90
2023-05-09T12:51:36.992Z,2.70
2023-05-09T12:52:43.993Z,2.80
2023-05-09T12:53:36.978Z,2.60
2023-05-09T12:54:36.695Z,2.60
2023-05-09T12:55:36.893Z,2.90
2023-05-09T12:56:35.962Z,2.60
2023-05-09T12:57:35.913Z,2.50
2023-05-09T12:58:36.638Z,2.80
2023-05-09T12:59:35.978Z,2.80
2023-05-09T13:00:35.938Z,2.90
2023-05-09T13:01:36.862Z,3.10
2023-05-09T13:02:35.970Z,2.60
2023-05-09T13:03:36.434Z,2.50
2023-05-09T13:04:36.805Z,2.40
2023-05-09T13:05:36.702Z,2.70
2023-05-09T13:06:36.091Z,2.60
2023-05-09T13:07:35.843Z,2.60
2023-05-09T13:08:36.851Z,2.50
2023-05-09T13:09:36.573Z,2.50
2023-05-09T13:10:35.774Z,2.50
2023-05-09T13:11:35.764Z,2.90
2023-05-09T13:12:35.776Z,2.90
2023-05-09T13:13:35.747Z,2.40
2023-05-09T13:14:35.792Z,2.50
2023-05-09T13:15:35.682Z,2.80
2023-05-09T13:16:35.801Z,2.90
2023-05-09T13:17:35.995Z,2.30
2023-05-09T13:18:35.608Z,2.50
2023-05-09T13:19:35.620Z,2.70
2023-05-09T13:20:36.560Z,2.70
2023-05-09T13:21:36.212Z,2.70
2023-05-09T13:22:35.612Z,2.60
2023-05-09T13:23:35.545Z,2.70
2023-05-09T13:24:36.398Z,2.30
2023-05-09T13:25:35.561Z,2.60
2023-05-09T13:26:35.614Z,2.90
2023-05-09T13:27:35.562Z,2.70
2023-05-09T13:28:35.509Z,2.50
2023-05-09T13:29:35.586Z,2.80
2023-05-09T13:30:35.543Z,3.00
2023-05-09T13:31:36.220Z,2.40
2023-05-09T13:32:36.605Z,2.70
2023-05-09T13:33:35.547Z,2.60
2023-05-09T13:34:35.525Z,2.70
2023-05-09T13:35:35.417Z,2.80
2023-05-09T13:36:35.542Z,2.70
2023-05-09T13:37:35.404Z,2.30
2023-05-09T13:38:35.423Z,2.70
2023-05-09T13:39:35.442Z,2.70
2023-05-09T13:40:35.321Z,2.70
2023-05-09T13:41:37.502Z,2.90
2023-05-09T13:42:35.416Z,2.50
2023-05-09T13:43:35.318Z,2.50
2023-05-09T13:44:35.392Z,2.90
2023-05-09T13:45:35.366Z,2.80
2023-05-09T13:46:35.438Z,2.50
2023-05-09T13:47:36.686Z,2.60
2023-05-09T13:48:35.272Z,2.40
2023-05-09T13:49:35.280Z,2.30
2023-05-09T13:50:35.261Z,2.50
2023-05-09T13:51:35.625Z,2.70
2023-05-09T13:52:35.268Z,2.70
2023-05-09T13:53:38.673Z,2.60
2023-05-09T13:54:35.318Z,2.40
2023-05-09T13:55:35.149Z,2.40
2023-05-09T13:56:35.188Z,2.20
2023-05-09T13:57:35.160Z,2.50
2023-05-09T13:58:35.209Z,2.80
2023-05-09T13:59:35.738Z,2.80
2023-05-09T14:00:35.111Z,2.20
2023-05-09T14:01:35.109Z,2.30
2023-05-09T14:02:35.319Z,2.60
2023-05-09T14:03:35.127Z,2.30
2023-05-09T14:04:35.307Z,2.50
2023-05-09T14:05:35.048Z,2.20
2023-05-09T14:06:35.018Z,2.40
2023-05-09T14:07:35.215Z,2.60
2023-05-09T14:08:35.060Z,2.50
2023-05-09T14:09:35.737Z,2.30
2023-05-09T14:10:35.205Z,2.60
2023-05-09T14:11:35.043Z,2.30
2023-05-09T14:12:35.029Z,2.50
2023-05-09T14:13:37.057Z,2.40
2023-05-09T14:14:34.931Z,2.70
2023-05-09T14:15:34.924Z,2.70
2023-05-09T14:16:35.031Z,2.50
2023-05-09T14:17:35.011Z,2.60
2023-05-09T14:18:34.864Z,2.50
2023-05-09T14:19:34.902Z,2.50
2023-05-09T14:20:35.213Z,2.70
2023-05-09T14:21:35.123Z,2.60
2023-05-09T14:22:35.208Z,2.70
2023-05-09T14:23:35.222Z,2.50
2023-05-09T14:24:35.568Z,2.60
2023-05-09T14:25:34.850Z,2.50
2023-05-09T14:26:35.231Z,2.50
2023-05-09T14:27:37.041Z,2.40
2023-05-09T14:28:35.719Z,2.60
2023-05-09T14:29:35.248Z,2.60
2023-05-09T14:30:34.813Z,2.40
2023-05-09T14:31:35.318Z,2.40
2023-05-09T14:32:34.949Z,2.60
2023-05-09T14:33:35.140Z,2.50
2023-05-09T14:34:35.080Z,2.50
2023-05-09T14:35:35.190Z,2.60
2023-05-09T14:36:35.383Z,2.30
2023-05-09T14:37:34.971Z,2.60
2023-05-09T14:38:34.757Z,2.50
2023-05-09T14:39:35.232Z,2.60
2023-05-09T14:40:35.057Z,2.50
2023-05-09T14:41:34.791Z,2.50
2023-05-09T14:42:34.571Z,2.30
2023-05-09T14:43:35.423Z,2.30
2023-05-09T14:44:35.822Z,2.30
2023-05-09T14:45:34.966Z,2.40
2023-05-09T14:46:35.790Z,2.10
2023-05-09T14:47:35.340Z,2.00
2023-05-09T14:48:35.173Z,2.20
2023-05-09T14:49:35.003Z,2.30
2023-05-09T14:50:34.590Z,2.40
2023-05-09T14:51:35.003Z,2.40
2023-05-09T14:52:34.393Z,2.10
2023-05-09T14:53:34.962Z,2.40
2023-05-09T14:54:34.934Z,2.20
2023-05-09T14:55:35.072Z,2.40
2023-05-09T14:56:34.652Z,2.50
2023-05-09T14:57:34.429Z,2.30
2023-05-09T14:58:34.751Z,2.00
2023-05-09T14:59:36.647Z,2.70
2023-05-09T15:00:34.375Z,2.30
2023-05-09T15:01:34.795Z,2.20
2023-05-09T15:02:34.345Z,2.50
2023-05-09T15:03:34.517Z,2.30
2023-05-09T15:04:34.644Z,2.40
2023-05-09T15:05:34.961Z,2.50
2023-05-09T15:06:34.306Z,2.60
2023-05-09T15:07:34.721Z,2.70
2023-05-09T15:08:34.259Z,2.30
2023-05-09T15:09:34.612Z,2.10
2023-05-09T15:10:36.940Z,2.30
2023-05-09T15:11:46.751Z,2.00
2023-05-09T15:12:36.370Z,2.40
2023-05-09T15:13:34.567Z,2.10
2023-05-09T15:14:36.756Z,2.10
2023-05-09T15:15:36.345Z,2.40
2023-05-09T15:16:34.730Z,2.20
2023-05-09T15:17:35.130Z,2.30
2023-05-09T15:18:36.660Z,2.10
2023-05-09T15:19:38.336Z,2.20
2023-05-09T15:20:36.870Z,1.90
2023-05-09T15:21:39.873Z,2.00
2023-05-09T15:22:40.662Z,2.20
2023-05-09T15:23:38.958Z,2.20
2023-05-09T15:24:36.662Z,2.40
2023-05-09T15:25:34.879Z,2.30
2023-05-09T15:26:34.990Z,2.10
2023-05-09T15:27:35.286Z,2.50
2023-05-09T15:28:35.637Z,2.30
2023-05-09T15:29:36.331Z,2.30
2023-05-09T15:30:38.023Z,2.20
2023-05-09T15:31:35.718Z,2.20
2023-05-09T15:32:35.504Z,2.30
2023-05-09T15:33:35.273Z,2.30
2023-05-09T15:34:34.387Z,2.20
2023-05-09T15:35:35.822Z,2.00
2023-05-09T15:36:35.061Z,2.30
2023-05-09T15:37:35.765Z,2.00
2023-05-09T15:38:34.640Z,2.00
2023-05-09T15:39:36.517Z,2.70
2023-05-09T15:40:36.594Z,2.30
2023-05-09T15:41:35.693Z,2.10
2023-05-09T15:42:33.854Z,2.00
2023-05-09T15:43:34.232Z,1.90
2023-05-09T15:44:34.187Z,2.20
2023-05-09T15:45:33.889Z,2.30
2023-05-09T15:46:34.146Z,2.30
2023-05-09T15:47:33.765Z,2.40
2023-05-09T15:48:34.386Z,2.20
2023-05-09T15:49:33.740Z,1.90
2023-05-09T15:50:34.117Z,2.20
2023-05-09T15:51:33.933Z,2.40
2023-05-09T15:52:34.465Z,2.30
2023-05-09T15:53:33.763Z,2.00
2023-05-09T15:54:33.878Z,1.90
2023-05-09T15:55:33.748Z,2.20
2023-05-09T15:56:34.516Z,2.20
2023-05-09T15:57:33.796Z,2.20
2023-05-09T15:58:33.653Z,1.90
2023-05-09T15:59:33.976Z,1.90
2023-05-09T16:00:34.594Z,1.70
2023-05-09T16:01:35.326Z,1.90
2023-05-09T16:02:33.638Z,2.00
2023-05-09T16:03:33.680Z,2.10
2023-05-09T16:04:33.727Z,1.80
2023-05-09T16:05:33.943Z,2.50
2023-05-09T16:06:33.718Z,1.90
2023-05-09T16:07:35.790Z,1.80
2023-05-09T16:08:34.000Z,2.00
2023-05-09T16:09:33.569Z,2.20
2023-05-09T16:10:33.889Z,2.00
2023-05-09T16:11:33.800Z,2.10
2023-05-09T16:12:33.802Z,2.10
2023-05-09T16:13:35.685Z,1.90
2023-05-09T16:14:33.480Z,2.20
2023-05-09T16:15:34.082Z,1.90
2023-05-09T16:16:35.541Z,1.50
2023-05-09T16:17:33.792Z,2.30
2023-05-09T16:18:33.348Z,2.30
2023-05-09T16:19:35.602Z,1.90
2023-05-09T16:20:33.431Z,1.80
2023-05-09T16:21:33.454Z,2.00
2023-05-09T16:22:33.294Z,2.20
2023-05-09T16:23:34.017Z,1.90
2023-05-09T16:24:33.471Z,2.20
2023-05-09T16:25:35.327Z,1.90
2023-05-09T16:26:33.981Z,2.00
2023-05-09T16:27:33.378Z,1.90
2023-05-09T16:28:33.444Z,1.80
2023-05-09T16:29:33.330Z,1.80
2023-05-09T16:30:33.195Z,2.10
2023-05-09T16:31:35.538Z,2.10
2023-05-09T16:32:33.076Z,1.90
2023-05-09T16:33:33.186Z,2.00
2023-05-09T16:34:34.100Z,2.30
2023-05-09T16:35:33.522Z,1.90
2023-05-09T16:36:33.084Z,4.90
2023-05-09T16:37:35.441Z,3.60
2023-05-09T16:38:33.030Z,2.20
2023-05-09T16:39:33.299Z,2.30
2023-05-09T16:40:33.500Z,2.20
2023-05-09T16:41:33.065Z,2.20
2023-05-09T16:42:33.060Z,2.30
2023-05-09T16:43:33.204Z,2.00
2023-05-09T16:44:33.605Z,2.00
2023-05-09T16:45:33.432Z,2.10
2023-05-09T16:46:33.082Z,1.90
2023-05-09T16:47:33.191Z,2.10
2023-05-09T16:48:33.212Z,2.10
2023-05-09T16:49:32.869Z,2.00
2023-05-09T16:50:33.258Z,2.00
2023-05-09T16:51:33.066Z,1.80
2023-05-09T16:52:33.104Z,1.90
2023-05-09T16:53:33.025Z,2.40
2023-05-09T16:54:32.816Z,1.90
2023-05-09T16:55:33.027Z,2.10
2023-05-09T16:56:32.973Z,2.20
2023-05-09T16:57:32.631Z,2.10
2023-05-09T16:58:32.973Z,2.50
2023-05-09T16:59:32.660Z,2.40
2023-05-09T17:00:32.752Z,2.10
2023-05-09T17:01:33.018Z,1.90
2023-05-09T17:02:32.810Z,2.60
2023-05-09T17:03:32.718Z,2.20
2023-05-09T17:04:33.491Z,3.10
2023-05-09T17:05:32.672Z,3.10
2023-05-09T17:06:32.598Z,2.80
2023-05-09T17:07:32.513Z,2.20
2023-05-09T17:08:32.508Z,2.50
2023-05-09T17:09:33.308Z,1.80
2023-05-09T17:10:32.961Z,2.10
2023-05-09T17:11:32.571Z,2.40
2023-05-09T17:12:32.507Z,2.40
2023-05-09T17:13:32.438Z,1.90
2023-05-09T17:14:32.546Z,2.00
2023-05-09T17:15:32.711Z,2.30
2023-05-09T17:16:32.482Z,2.80
2023-05-09T17:17:32.514Z,2.20
2023-05-09T17:18:37.555Z,1.90
2023-05-09T17:19:33.777Z,2.20